createdAt,value
2023-05-29T00:02:32.485Z,101896.53
2023-05-29T00:05:54.389Z,101902.53
2023-05-29T00:09:17.328Z,101896.84
2023-05-29T00:12:40.032Z,101893.94
2023-05-29T00:16:01.867Z,101896.28
2023-05-29T00:19:25.014Z,101897.75
2023-05-29T00:22:46.558Z,101905.53
2023-05-29T00:26:10.065Z,101899.97
2023-05-29T00:29:33.387Z,101905.94
2023-05-29T00:32:57.797Z,101910.94
2023-05-29T00:36:20.132Z,101920.47
2023-05-29T00:39:41.837Z,101911.91
2023-05-29T00:43:05.016Z,101923.25
2023-05-29T00:46:27.536Z,101926.41
2023-05-29T00:49:52.348Z,101914.44
2023-05-29T00:53:14.094Z,101917.72
2023-05-29T00:56:36.211Z,101923.44
2023-05-29T01:00:00.912Z,101920.38
2023-05-29T01:03:24.137Z,101921.72
2023-05-29T01:06:46.596Z,101932.03
2023-05-29T01:10:10.163Z,101926.19
2023-05-29T01:13:35.212Z,101928.59
2023-05-29T01:17:05.081Z,101930.88
2023-05-29T01:20:36.260Z,101930.47
2023-05-29T01:24:05.999Z,101929.25
2023-05-29T01:27:33.419Z,101935.06
2023-05-29T01:30:56.776Z,101930.91
2023-05-29T01:34:19.346Z,101941.22
2023-05-29T01:37:41.838Z,101933.66
2023-05-29T01:41:03.942Z,101934.13
2023-05-29T01:44:27.505Z,101933.47
2023-05-29T01:47:49.941Z,101920.59
2023-05-29T01:51:13.941Z,101930.75
2023-05-29T01:54:35.634Z,101934.63
2023-05-29T01:57:58.243Z,101937.63
2023-05-29T02:01:22.007Z,101938.81
2023-05-29T02:04:44.076Z,101941.19
2023-05-29T02:08:06.666Z,101938.75
2023-05-29T02:11:28.319Z,101939.16
2023-05-29T02:14:49.677Z,101945.88
2023-05-29T02:18:15.085Z,101949.13
2023-05-29T02:21:36.860Z,101950.31
2023-05-29T02:24:59.910Z,101955.09
2023-05-29T02:28:21.799Z,101945.72
2023-05-29T02:31:43.167Z,101946.91
2023-05-29T02:35:06.940Z,101946.25
2023-05-29T02:38:28.893Z,101944.78
2023-05-29T02:41:50.608Z,101955.66
2023-05-29T02:45:12.790Z,101946.25
2023-05-29T02:48:34.404Z,101952.69
2023-05-29T02:51:58.115Z,101948.53
2023-05-29T02:55:19.932Z,101946.16
2023-05-29T02:58:41.629Z,101945.41
2023-05-29T03:02:03.342Z,101948.31
2023-05-29T03:05:25.152Z,101947.66
2023-05-29T03:08:50.766Z,101946.06
2023-05-29T03:12:12.169Z,101950.75
2023-05-29T03:15:33.877Z,101952.66
2023-05-29T03:18:55.749Z,101942.22
2023-05-29T03:22:17.644Z,101946.66
2023-05-29T03:25:40.936Z,101944.34
2023-05-29T03:29:03.374Z,101949.75
2023-05-29T03:32:26.293Z,101948.19
2023-05-29T03:35:48.471Z,101940.19
2023-05-29T03:39:10.374Z,101948.25
2023-05-29T03:42:33.476Z,101944.75
2023-05-29T03:45:56.528Z,101956.16
2023-05-29T03:49:18.969Z,101963.22
2023-05-29T03:52:40.945Z,101955.97
2023-05-29T03:56:02.809Z,101962.03
2023-05-29T03:59:26.153Z,101960.97
2023-05-29T04:02:48.411Z,101963.41
2023-05-29T04:06:10.332Z,101963.31
2023-05-29T04:09:32.045Z,101963.13
2023-05-29T04:12:55.961Z,101963.66
2023-05-29T04:16:19.465Z,101961.63
2023-05-29T04:19:41.112Z,101962.16
2023-05-29T04:23:03.006Z,101968.91
2023-05-29T04:26:26.354Z,101966.75
2023-05-29T04:29:47.777Z,101968.25
2023-05-29T04:33:13.539Z,101973.16
2023-05-29T04:36:40.148Z,101974.56
2023-05-29T04:40:06.991Z,101977.63
2023-05-29T04:43:28.720Z,101974.53
2023-05-29T04:46:55.356Z,101974.72
2023-05-29T04:50:18.944Z,101975.81
2023-05-29T04:53:42.312Z,101979.63
2023-05-29T04:57:05.863Z,101981.53
2023-05-29T05:00:29.597Z,101976.38
2023-05-29T05:03:51.441Z,101982.66
2023-05-29T05:07:16.925Z,101979.19
2023-05-29T05:10:38.377Z,101979.34
2023-05-29T05:14:00.225Z,101979.53
2023-05-29T05:17:23.103Z,101976.91
2023-05-29T05:20:44.632Z,101974.50
2023-05-29T05:24:08.055Z,101985.34
2023-05-29T05:27:33.564Z,101975.88
2023-05-29T05:30:57.261Z,101976.06
2023-05-29T05:34:19.392Z,101975.22
2023-05-29T05:37:41.296Z,101977.09
2023-05-29T05:41:04.671Z,101975.41
2023-05-29T05:44:27.790Z,101968.25
2023-05-29T05:47:58.784Z,101976.28
2023-05-29T05:51:20.589Z,101970.81
2023-05-29T05:54:42.426Z,101974.44
2023-05-29T05:58:05.533Z,101978.13
2023-05-29T06:01:27.834Z,101979.19
2023-05-29T06:04:50.017Z,101981.00
2023-05-29T06:08:12.050Z,101995.34
2023-05-29T06:11:33.944Z,101988.38
2023-05-29T06:14:57.088Z,101988.75
2023-05-29T06:18:18.603Z,101987.97
2023-05-29T06:21:40.564Z,101998.56
2023-05-29T06:25:04.830Z,102002.91
2023-05-29T06:28:27.140Z,102004.69
2023-05-29T06:31:50.828Z,102007.19
2023-05-29T06:35:14.153Z,102015.06
2023-05-29T06:38:36.255Z,102013.16
2023-05-29T06:41:58.433Z,102011.50
2023-05-29T06:45:19.864Z,102016.09
2023-05-29T06:48:43.002Z,102009.69
2023-05-29T06:52:04.856Z,102015.66
2023-05-29T06:55:49.538Z,102025.47
2023-05-29T06:59:11.208Z,102020.69
2023-05-29T07:02:32.816Z,102019.19
2023-05-29T07:05:56.369Z,102018.66
2023-05-29T07:09:18.238Z,102016.28
2023-05-29T07:12:42.144Z,102011.06
2023-05-29T07:16:13.240Z,102020.28
2023-05-29T07:19:47.896Z,102019.59
2023-05-29T07:23:11.206Z,102022.84
2023-05-29T07:26:33.516Z,102022.56
2023-05-29T07:29:55.428Z,102029.81
2023-05-29T07:33:17.280Z,102023.88
2023-05-29T07:36:58.670Z,102027.72
2023-05-29T07:40:21.835Z,102029.00
2023-05-29T07:43:56.921Z,102025.88
2023-05-29T07:47:18.919Z,102029.84
2023-05-29T07:50:43.087Z,102029.69
2023-05-29T07:54:05.150Z,102032.97
2023-05-29T07:57:28.818Z,102034.38
2023-05-29T08:00:53.150Z,102035.25
2023-05-29T08:04:14.959Z,102038.53
2023-05-29T08:07:36.546Z,102027.34
2023-05-29T08:10:58.460Z,102032.00
2023-05-29T08:14:21.759Z,102028.88
2023-05-29T08:17:43.766Z,102027.06
2023-05-29T08:21:05.397Z,102029.88
2023-05-29T08:24:27.127Z,102026.75
2023-05-29T08:27:49.720Z,102028.72
2023-05-29T08:31:12.746Z,102025.59
2023-05-29T08:34:34.146Z,102031.69
2023-05-29T08:37:55.737Z,102030.22
2023-05-29T08:41:23.416Z,102036.72
2023-05-29T08:44:50.114Z,102026.53
2023-05-29T08:48:13.759Z,102034.59
2023-05-29T08:51:40.028Z,102017.13
2023-05-29T08:55:02.141Z,102022.63
2023-05-29T08:58:24.940Z,102022.59
2023-05-29T09:01:47.252Z,102025.97
2023-05-29T09:05:11.200Z,102021.00
2023-05-29T09:08:34.025Z,102023.28
2023-05-29T09:11:55.900Z,102031.06
2023-05-29T09:15:22.215Z,102038.25
2023-05-29T09:18:46.966Z,102034.72
2023-05-29T09:22:13.097Z,102031.13
2023-05-29T09:25:36.847Z,102030.91
2023-05-29T09:28:58.431Z,102034.53
2023-05-29T09:32:21.048Z,102033.06
2023-05-29T09:35:43.666Z,102032.78
2023-05-29T09:39:17.649Z,102031.31
2023-05-29T09:42:39.853Z,102029.78
2023-05-29T09:46:04.227Z,102028.00
2023-05-29T09:49:28.303Z,102029.69
2023-05-29T09:52:54.809Z,102026.09
2023-05-29T09:56:18.440Z,102034.69
2023-05-29T09:59:40.820Z,102027.59
2023-05-29T10:03:02.484Z,102033.00
2023-05-29T10:06:25.006Z,102031.56
2023-05-29T10:09:51.703Z,102029.16
2023-05-29T10:13:16.242Z,102013.66
2023-05-29T10:16:43.716Z,102023.53
2023-05-29T10:20:09.150Z,102011.59
2023-05-29T10:23:32.089Z,102015.03
2023-05-29T10:26:56.122Z,102013.91
2023-05-29T10:30:29.890Z,102016.34
2023-05-29T10:34:03.862Z,102021.22
2023-05-29T10:37:34.533Z,102004.69
2023-05-29T10:40:56.112Z,102004.50
2023-05-29T10:44:50.793Z,102004.25
2023-05-29T10:48:46.683Z,102007.34
2023-05-29T10:52:12.873Z,102003.47
2023-05-29T10:55:36.610Z,102013.09
2023-05-29T10:59:01.983Z,101999.97
2023-05-29T11:02:24.744Z,101991.44
2023-05-29T11:17:33.634Z,101993.69
2023-05-29T11:20:59.540Z,101985.03
2023-05-29T11:24:24.962Z,101978.13
2023-05-29T11:27:46.931Z,101977.47
2023-05-29T11:31:10.903Z,101975.81
2023-05-29T11:34:35.257Z,101980.94
2023-05-29T11:37:57.490Z,101981.81
2023-05-29T11:41:20.199Z,101983.88
2023-05-29T11:44:42.163Z,101979.34
2023-05-29T11:48:05.282Z,101980.16
2023-05-29T11:51:28.634Z,101980.25
2023-05-29T11:54:50.638Z,101986.19
2023-05-29T11:58:12.024Z,101990.41
2023-05-29T12:01:36.800Z,101977.31
2023-05-29T12:05:08.795Z,101979.34
2023-05-29T12:08:32.395Z,101975.81
2023-05-29T12:11:55.512Z,101975.56
2023-05-29T12:15:18.726Z,101967.31
2023-05-29T12:18:40.815Z,101971.41
2023-05-29T12:22:02.337Z,101961.94
2023-05-29T12:25:25.757Z,101963.97
2023-05-29T12:28:47.686Z,101962.63
2023-05-29T12:32:12.280Z,101966.34
2023-05-29T12:35:34.422Z,101966.00
2023-05-29T12:38:58.174Z,101982.25
2023-05-29T12:42:21.378Z,101960.72
2023-05-29T12:45:43.803Z,101962.09
2023-05-29T12:49:13.908Z,101951.78
2023-05-29T12:52:35.466Z,101961.94
2023-05-29T12:55:58.152Z,101958.38
2023-05-29T12:59:21.120Z,101951.81
2023-05-29T13:02:42.546Z,101950.50
2023-05-29T13:06:04.709Z,101949.50
2023-05-29T13:09:26.588Z,101951.34
2023-05-29T13:12:54.741Z,101937.66
2023-05-29T13:16:18.960Z,101943.94
2023-05-29T13:19:41.226Z,101935.63
2023-05-29T13:23:02.887Z,101935.09
2023-05-29T13:26:24.774Z,101930.56
2023-05-29T13:29:46.726Z,101927.50
2023-05-29T13:33:10.134Z,101936.13
2023-05-29T13:36:32.318Z,101936.28
2023-05-29T13:39:53.892Z,101933.22
2023-05-29T13:43:15.716Z,101931.53
2023-05-29T13:46:37.115Z,101928.53
2023-05-29T13:50:00.214Z,101933.06
2023-05-29T13:53:21.637Z,101929.69
2023-05-29T13:56:44.654Z,101938.50
2023-05-29T14:00:08.844Z,101935.63
2023-05-29T14:03:30.845Z,101934.59
2023-05-29T14:06:54.264Z,101928.50
2023-05-29T14:10:16.661Z,101918.72
2023-05-29T14:13:38.109Z,101922.13
2023-05-29T14:17:00.315Z,101925.47
2023-05-29T14:20:21.980Z,101917.84
2023-05-29T14:23:44.745Z,101914.13
2023-05-29T14:27:07.774Z,101914.81
2023-05-29T14:30:29.650Z,101922.44
2023-05-29T14:33:51.262Z,101918.75
2023-05-29T14:37:13.459Z,101923.97
2023-05-29T14:40:36.847Z,101915.00
2023-05-29T14:43:59.182Z,101919.03
2023-05-29T14:47:21.085Z,101913.94
2023-05-29T14:50:42.513Z,101923.75
2023-05-29T14:54:04.306Z,101914.28
2023-05-29T14:57:27.604Z,101912.03
2023-05-29T15:00:48.892Z,101919.66
2023-05-29T15:04:10.243Z,101916.47
2023-05-29T15:07:35.016Z,101915.69
2023-05-29T15:10:56.431Z,101915.34
2023-05-29T15:14:20.091Z,101921.41
2023-05-29T15:17:41.639Z,101923.75
2023-05-29T15:21:04.184Z,101918.97
2023-05-29T15:24:25.599Z,101924.72
2023-05-29T15:27:48.128Z,101922.16
2023-05-29T15:31:11.062Z,101944.66
2023-05-29T15:34:32.923Z,101928.38
2023-05-29T15:37:54.820Z,101922.22
2023-05-29T15:41:16.663Z,101918.16
2023-05-29T15:44:38.489Z,101920.88
2023-05-29T15:48:01.870Z,101917.78
2023-05-29T15:51:23.427Z,101921.31
2023-05-29T15:54:45.531Z,101915.09
2023-05-29T15:58:07.813Z,101930.06
2023-05-29T16:01:29.258Z,101918.25
2023-05-29T16:05:05.592Z,101924.91
2023-05-29T16:08:28.616Z,101920.38
2023-05-29T16:11:49.988Z,101923.59
2023-05-29T16:15:11.897Z,101933.41
2023-05-29T16:18:33.371Z,101934.66
2023-05-29T16:21:56.597Z,101937.53
2023-05-29T16:25:18.617Z,101930.91
2023-05-29T16:28:40.215Z,101933.81
2023-05-29T16:32:02.626Z,101943.66
2023-05-29T16:35:24.434Z,101937.16
2023-05-29T16:38:48.027Z,101933.81
2023-05-29T16:42:10.196Z,101932.75
2023-05-29T16:45:31.993Z,101933.78
2023-05-29T16:48:54.190Z,101927.19
2023-05-29T16:52:20.399Z,101926.72
2023-05-29T16:55:43.572Z,101928.41
2023-05-29T16:59:05.490Z,101921.84
2023-05-29T17:02:27.191Z,101925.22
2023-05-29T17:05:48.490Z,101930.91
2023-05-29T17:09:10.171Z,101939.25
2023-05-29T17:12:33.304Z,101935.84
2023-05-29T17:15:55.237Z,101942.41
2023-05-29T17:19:16.999Z,101942.28
2023-05-29T17:22:38.714Z,101939.09
2023-05-29T17:26:01.137Z,101938.59
2023-05-29T17:29:24.335Z,101935.09
2023-05-29T17:32:46.079Z,101943.41
2023-05-29T17:36:08.278Z,101948.50
2023-05-29T17:39:30.364Z,101951.88
2023-05-29T17:42:52.061Z,101950.19
2023-05-29T17:46:19.827Z,101953.53
2023-05-29T17:49:41.605Z,101961.59
2023-05-29T17:53:03.188Z,101957.50
2023-05-29T17:56:25.266Z,101960.19
2023-05-29T17:59:46.826Z,101966.94
2023-05-29T18:03:10.273Z,101957.44
2023-05-29T18:06:32.343Z,101962.59
2023-05-29T18:09:54.207Z,101964.41
2023-05-29T18:13:16.089Z,101963.03
2023-05-29T18:16:38.163Z,101956.25
2023-05-29T18:20:01.161Z,101953.75
2023-05-29T18:23:23.549Z,101960.31
2023-05-29T18:26:45.233Z,101951.28
2023-05-29T18:30:08.385Z,101955.66
2023-05-29T18:33:30.090Z,101951.72
2023-05-29T18:36:53.376Z,101961.47
2023-05-29T18:40:15.168Z,101967.47
2023-05-29T18:43:36.818Z,101967.41
2023-05-29T18:46:58.591Z,101959.19
2023-05-29T18:50:20.671Z,101966.06
2023-05-29T18:53:45.322Z,101969.56
2023-05-29T18:57:08.224Z,101974.50
2023-05-29T19:00:29.869Z,101980.53
2023-05-29T19:03:52.077Z,101984.50
2023-05-29T19:07:13.991Z,101990.69
2023-05-29T19:10:38.277Z,101993.06
2023-05-29T19:14:00.025Z,101994.97
2023-05-29T19:17:21.960Z,101993.31
2023-05-29T19:20:43.946Z,101996.75
2023-05-29T19:24:06.937Z,101995.22
2023-05-29T19:27:30.230Z,102003.91
2023-05-29T19:30:52.608Z,102007.34
2023-05-29T19:34:14.134Z,102016.72
2023-05-29T19:37:35.878Z,102020.44
2023-05-29T19:40:57.899Z,102037.19
2023-05-29T19:44:21.439Z,102030.69
2023-05-29T19:47:43.767Z,102034.66
2023-05-29T19:51:05.906Z,102042.00
2023-05-29T19:54:28.243Z,102040.31
2023-05-29T19:57:50.142Z,102041.88
2023-05-29T20:01:13.330Z,102043.19
2023-05-29T20:04:36.362Z,102048.84
2023-05-29T20:07:58.106Z,102057.50
2023-05-29T20:11:19.869Z,102057.91
2023-05-29T20:14:42.397Z,102065.44
2023-05-29T20:18:06.365Z,102056.94
2023-05-29T20:21:28.096Z,102062.75
2023-05-29T20:24:49.616Z,102058.75
2023-05-29T20:28:11.860Z,102072.06
2023-05-29T20:31:34.045Z,102070.91
2023-05-29T20:34:56.960Z,102065.50
2023-05-29T20:38:18.904Z,102072.56
2023-05-29T20:41:41.028Z,102074.97
2023-05-29T20:45:03.805Z,102070.00
2023-05-29T20:48:26.043Z,102083.84
2023-05-29T20:51:49.605Z,102071.13
2023-05-29T20:55:11.800Z,102067.28
2023-05-29T20:58:33.652Z,102069.66
2023-05-29T21:01:56.252Z,102066.66
2023-05-29T21:05:17.922Z,102075.25
2023-05-29T21:08:40.976Z,102067.03
2023-05-29T21:12:03.001Z,102068.56
2023-05-29T21:15:24.538Z,102066.53
2023-05-29T21:18:46.422Z,102067.16
2023-05-29T21:22:08.598Z,102065.88
2023-05-29T21:25:31.654Z,102068.34
2023-05-29T21:28:53.615Z,102064.63
2023-05-29T21:32:15.079Z,102069.78
2023-05-29T21:35:39.075Z,102062.53
2023-05-29T21:39:01.220Z,102076.59
2023-05-29T21:42:24.378Z,102068.47
2023-05-29T21:45:46.906Z,102068.41
2023-05-29T21:49:08.607Z,102065.75
2023-05-29T21:52:30.608Z,102072.75
2023-05-29T21:55:52.356Z,102069.13
2023-05-29T21:59:15.819Z,102072.75
2023-05-29T22:02:38.529Z,102068.16
2023-05-29T22:06:00.391Z,102080.59
2023-05-29T22:09:22.033Z,102069.16
2023-05-29T22:12:45.213Z,102084.16
2023-05-29T22:16:09.308Z,102085.00
2023-05-29T22:19:31.576Z,102081.38
2023-05-29T22:22:58.532Z,102089.13
2023-05-29T22:26:23.841Z,102079.16
2023-05-29T22:29:45.648Z,102075.34
2023-05-29T22:33:08.718Z,102075.00
2023-05-29T22:36:31.089Z,102086.44
2023-05-29T22:39:52.772Z,102091.38
2023-05-29T22:43:14.833Z,102099.16
2023-05-29T22:46:39.167Z,102099.59
2023-05-29T22:50:03.684Z,102098.31
2023-05-29T22:53:25.567Z,102097.97
2023-05-29T22:56:47.390Z,102091.47
2023-05-29T23:00:10.179Z,102095.56
2023-05-29T23:03:31.672Z,102094.44
2023-05-29T23:06:55.056Z,102092.44
2023-05-29T23:10:16.324Z,102100.06
2023-05-29T23:13:38.294Z,102096.22
2023-05-29T23:17:00.220Z,102098.63
2023-05-29T23:20:21.781Z,102089.34
2023-05-29T23:23:44.932Z,102096.09
2023-05-29T23:27:07.860Z,102092.13
2023-05-29T23:30:29.319Z,102091.84
2023-05-29T23:33:51.170Z,102105.66
2023-05-29T23:37:13.866Z,102098.06
2023-05-29T23:40:36.819Z,102100.22
2023-05-29T23:43:58.731Z,102098.94
2023-05-29T23:47:20.167Z,102096.59
2023-05-29T23:50:43.348Z,102096.16
2023-05-29T23:54:05.396Z,102108.94
2023-05-29T23:57:28.609Z,102108.41
